Weather

Current Metar report

KALM 150235Z AUTO 14005KT 10SM FEW035 FEW047 29/10 A3010 RMK AO2


Metar history is on Flightaware.

KALM AWOS Info
Phone Number: 575-439-4112
Freq: 127.825 MHz

KALM Weather Links

Soaring Forecasts Links